| time (UTC) | temp F | wind direction | speed MPH | gust MPH | rain 1hr in | rain 24hr in | rain mn in | humidity % | barometer mb |
| 20260510004534 | 43 | 0 | 0.0 | 4.0 | 0.00 | 0.39 | 0.30 | 91 | 995.5 |
| 20260510003030 | 43 | 43 | 1.0 | 6.0 | 0.00 | 0.39 | 0.30 | 92 | 995.5 |
| 20260510001528 | 43 | 19 | 1.0 | 4.0 | 0.00 | 0.39 | 0.30 | 92 | 995.5 |
| 20260510000029 | 43 | 5 | 2.0 | 5.0 | 0.00 | 0.39 | 0.30 | 92 | 995.6 |
| 20260509234542 | 42 | 0 | 0.0 | 6.0 | 0.00 | 0.39 | 0.30 | 92 | 995.4 |
| 20260509233030 | 43 | 0 | 1.0 | 4.0 | 0.00 | 0.39 | 0.30 | 92 | 995.4 |
| 20260509231529 | 42 | 15 | 1.0 | 5.0 | 0.00 | 0.39 | 0.30 | 93 | 995.5 |
| 20260509230028 | 42 | 329 | 1.0 | 5.0 | 0.00 | 0.39 | 0.30 | 93 | 995.4 |
| 20260509224532 | 41 | 0 | 1.0 | 4.0 | 0.00 | 0.39 | 0.30 | 94 | 995.5 |
| 20260509223027 | 40 | 96 | 1.0 | 4.0 | 0.00 | 0.39 | 0.30 | 93 | 995.7 |
| 20260509221536 | 40 | 0 | 1.0 | 5.0 | 0.00 | 0.39 | 0.30 | 93 | 995.4 |
| 20260509220028 | 40 | 311 | 2.0 | 5.0 | 0.00 | 0.39 | 0.30 | 94 | 995.4 |
| 20260509214528 | 40 | 13 | 1.0 | 3.0 | 0.00 | 0.39 | 0.30 | 93 | 995.5 |
| 20260509213031 | 40 | 24 | 2.0 | 6.0 | 0.00 | 0.39 | 0.30 | 94 | 995.3 |
| 20260509211527 | 39 | 68 | 1.0 | 4.0 | 0.00 | 0.39 | 0.30 | 95 | 995.3 |
| 20260509210034 | 39 | 16 | 0.0 | 6.0 | 0.00 | 0.39 | 0.30 | 96 | 995.4 |
| 20260509204528 | 38 | 23 | 2.0 | 5.0 | 0.00 | 0.39 | 0.30 | 96 | 995.4 |
| 20260509203030 | 38 | 0 | 0.0 | 3.0 | 0.00 | 0.39 | 0.30 | 96 | 995.4 |
| 20260509201530 | 38 | 0 | 0.0 | 5.0 | 0.00 | 0.39 | 0.30 | 96 | 995.5 |
| 20260509200028 | 38 | 344 | 2.0 | 5.0 | 0.00 | 0.39 | 0.30 | 96 | 995.4 |
| 20260509194527 | 37 | 0 | 1.0 | 5.0 | 0.00 | 0.39 | 0.30 | 96 | 995.3 |
| 20260509193036 | 37 | 0 | 0.0 | 4.0 | 0.00 | 0.39 | 0.30 | 96 | 995.3 |
| 20260509191531 | 37 | 18 | 1.0 | 7.0 | 0.00 | 0.39 | 0.30 | 96 | 994.9 |
| 20260509190030 | 37 | 44 | 2.0 | 5.0 | 0.00 | 0.39 | 0.30 | 96 | 995.1 |
| 20260509184539 | 37 | 349 | 0.0 | 5.0 | 0.00 | 0.39 | 0.30 | 96 | 995.0 |
| 20260509183028 | 37 | 352 | 2.0 | 5.0 | 0.00 | 0.39 | 0.30 | 96 | 995.3 |
| 20260509181530 | 37 | 0 | 0.0 | 1.0 | 0.00 | 0.39 | 0.30 | 96 | 995.2 |
| 20260509180031 | 36 | 71 | 0.0 | 3.0 | 0.01 | 0.39 | 0.30 | 96 | 995.3 |
| 20260509174530 | 36 | 69 | 1.0 | 3.0 | 0.01 | 0.39 | 0.30 | 96 | 995.1 |
| 20260509173028 | 36 | 56 | 0.0 | 2.0 | 0.01 | 0.39 | 0.30 | 96 | 995.1 |
| 20260509171540 | 35 | 56 | 0.0 | 2.0 | 0.01 | 0.39 | 0.30 | 96 | 995.3 |
| 20260509170028 | 35 | 0 | 0.0 | 0.0 | 0.00 | 0.38 | 0.29 | 96 | 995.5 |
| 20260509164529 | 35 | 0 | 0.0 | 0.0 | 0.01 | 0.38 | 0.29 | 96 | 995.7 |
| 20260509163030 | 35 | 0 | 0.0 | 0.0 | 0.01 | 0.38 | 0.29 | 96 | 995.8 |
| 20260509161530 | 35 | 0 | 0.0 | 0.0 | 0.02 | 0.38 | 0.29 | 96 | 995.9 |
| 20260509160028 | 35 | 0 | 0.0 | 0.0 | 0.02 | 0.38 | 0.29 | 96 | 996.0 |
| 20260509154534 | 35 | 0 | 0.0 | 0.0 | 0.02 | 0.37 | 0.28 | 96 | 996.1 |
| 20260509153031 | 35 | 0 | 0.0 | 0.0 | 0.03 | 0.37 | 0.28 | 96 | 996.1 |
| 20260509151530 | 35 | 0 | 0.0 | 0.0 | 0.03 | 0.36 | 0.27 | 96 | 996.2 |
| 20260509150030 | 35 | 0 | 0.0 | 0.0 | 0.04 | 0.36 | 0.27 | 96 | 996.2 |
| 20260509144542 | 35 | 16 | 1.0 | 4.0 | 0.04 | 0.35 | 0.26 | 96 | 996.4 |
| 20260509143032 | 35 | 32 | 2.0 | 7.0 | 0.05 | 0.34 | 0.25 | 96 | 996.5 |
| 20260509141536 | 35 | 30 | 2.0 | 8.0 | 0.05 | 0.33 | 0.24 | 96 | 996.6 |
| 20260509140027 | 35 | 0 | 0.0 | 8.0 | 0.05 | 0.32 | 0.23 | 96 | 996.8 |
| 20260509134526 | 35 | 0 | 0.0 | 0.0 | 0.06 | 0.31 | 0.22 | 96 | 997.0 |
| 20260509133028 | 35 | 0 | 0.0 | 0.0 | 0.05 | 0.29 | 0.20 | 95 | 997.1 |
| 20260509131534 | 35 | 0 | 0.0 | 0.0 | 0.04 | 0.28 | 0.19 | 95 | 997.3 |
| 20260509130030 | 35 | 0 | 0.0 | 0.0 | 0.03 | 0.26 | 0.17 | 95 | 997.6 |
| 20260509124535 | 35 | 0 | 0.0 | 0.0 | 0.03 | 0.25 | 0.16 | 95 | 997.6 |
| 20260509123030 | 35 | 0 | 0.0 | 0.0 | 0.03 | 0.24 | 0.15 | 95 | 997.9 |
| 20260509121533 | 35 | 0 | 0.0 | 0.0 | 0.02 | 0.23 | 0.14 | 95 | 998.1 |
| 20260509120028 | 35 | 0 | 0.0 | 0.0 | 0.03 | 0.23 | 0.14 | 95 | 998.3 |
| 20260509114530 | 35 | 0 | 0.0 | 0.0 | 0.03 | 0.22 | 0.13 | 95 | 998.5 |
| 20260509113031 | 35 | 0 | 0.0 | 0.0 | 0.02 | 0.21 | 0.12 | 95 | 998.7 |
| 20260509111529 | 35 | 0 | 0.0 | 0.0 | 0.02 | 0.20 | 0.11 | 94 | 999.0 |
| 20260509110030 | 35 | 0 | 0.0 | 0.0 | 0.03 | 0.20 | 0.11 | 94 | 999.2 |
| 20260509104534 | 35 | 0 | 0.0 | 0.0 | 0.02 | 0.19 | 0.10 | 94 | 999.5 |
| 20260509103027 | 35 | 0 | 0.0 | 0.0 | 0.03 | 0.19 | 0.10 | 94 | 999.7 |
| 20260509101530 | 35 | 0 | 0.0 | 0.0 | 0.03 | 0.18 | 0.09 | 94 | 999.9 |
| 20260509100041 | 35 | 0 | 0.0 | 0.0 | 0.03 | 0.17 | 0.08 | 94 | 1000.2 |
| 20260509094534 | 36 | 0 | 0.0 | 0.0 | 0.04 | 0.17 | 0.08 | 94 | 1000.3 |
| 20260509093029 | 36 | 0 | 0.0 | 0.0 | 0.04 | 0.16 | 0.07 | 94 | 1000.6 |
| 20260509091530 | 36 | 0 | 0.0 | 0.0 | 0.05 | 0.15 | 0.06 | 93 | 1000.8 |
| 20260509090030 | 36 | 0 | 0.0 | 0.0 | 0.05 | 0.14 | 0.05 | 93 | 1001.1 |
| 20260509084533 | 37 | 0 | 0.0 | 0.0 | 0.05 | 0.13 | 0.04 | 93 | 1001.3 |
| 20260509083031 | 37 | 0 | 0.0 | 0.0 | 0.05 | 0.12 | 0.03 | 93 | 1001.5 |
| 20260509081540 | 37 | 0 | 0.0 | 0.0 | 0.03 | 0.10 | 0.01 | 93 | 1001.8 |
| 20260509080030 | 37 | 0 | 0.0 | 0.0 | 0.02 | 0.09 | 0.00 | 93 | 1001.9 |
| 20260509074535 | 38 | 0 | 0.0 | 2.0 | 0.02 | 0.08 | 0.08 | 93 | 1002.1 |
| 20260509073028 | 38 | 0 | 0.0 | 0.0 | 0.01 | 0.07 | 0.07 | 92 | 1002.1 |
| 20260509071528 | 38 | 0 | 0.0 | 0.0 | 0.02 | 0.07 | 0.07 | 92 | 1002.4 |
| 20260509070030 | 38 | 0 | 0.0 | 0.0 | 0.02 | 0.07 | 0.07 | 92 | 1002.7 |
| 20260509064528 | 38 | 0 | 0.0 | 0.0 | 0.03 | 0.06 | 0.06 | 92 | 1002.8 |
| 20260509063030 | 39 | 0 | 0.0 | 0.0 | 0.03 | 0.06 | 0.06 | 91 | 1002.8 |
| 20260509061538 | 39 | 0 | 0.0 | 0.0 | 0.03 | 0.05 | 0.05 | 91 | 1003.1 |
| 20260509060029 | 39 | 0 | 0.0 | 0.0 | 0.05 | 0.05 | 0.05 | 90 | 1003.1 |
| 20260509054528 | 40 | 0 | 0.0 | 0.0 | 0.03 | 0.03 | 0.03 | 88 | 1003.1 |
| 20260509053032 | 40 | 0 | 0.0 | 0.0 | 0.03 | 0.03 | 0.03 | 86 | 1003.2 |
| 20260509051534 | 41 | 0 | 0.0 | 0.0 | 0.01 | 0.01 | 0.01 | 82 | 1003.3 |
| 20260509050042 | 42 | 0 | 0.0 | 0.0 | 0.00 | 0.00 | 0.00 | 80 | 1003.3 |
| 20260509044541 | 42 | 0 | 0.0 | 0.0 | 0.00 | 0.00 | 0.00 | 77 | 1003.4 |
| 20260509043029 | 43 | 0 | 0.0 | 0.0 | 0.00 | 0.00 | 0.00 | 78 | 1003.6 |
| 20260509041527 | 43 | 0 | 0.0 | 0.0 | 0.00 | 0.00 | 0.00 | 77 | 1003.8 |
| 20260509040029 | 43 | 0 | 0.0 | 0.0 | 0.00 | 0.00 | 0.00 | 76 | 1003.9 |
| 20260509034528 | 43 | 0 | 0.0 | 0.0 | 0.00 | 0.00 | 0.00 | 75 | 1004.1 |
| 20260509033029 | 44 | 0 | 0.0 | 0.0 | 0.00 | 0.00 | 0.00 | 74 | 1004.3 |
| 20260509031535 | 44 | 0 | 0.0 | 0.0 | 0.00 | 0.00 | 0.00 | 73 | 1004.3 |
| 20260509030031 | 44 | 0 | 0.0 | 7.0 | 0.00 | 0.00 | 0.00 | 71 | 1004.5 |
| 20260509024529 | 44 | 0 | 0.0 | 1.0 | 0.00 | 0.00 | 0.00 | 71 | 1004.5 |
| 20260509023031 | 45 | 0 | 0.0 | 0.0 | 0.00 | 0.00 | 0.00 | 72 | 1004.7 |
| 20260509021532 | 45 | 0 | 0.0 | 0.0 | 0.00 | 0.00 | 0.00 | 69 | 1004.9 |
| 20260509020034 | 45 | 0 | 0.0 | 0.0 | 0.00 | 0.00 | 0.00 | 69 | 1005.1 |
| 20260509014528 | 45 | 0 | 0.0 | 0.0 | 0.00 | 0.00 | 0.00 | 71 | 1005.3 |
| 20260509013038 | 44 | 0 | 0.0 | 0.0 | 0.00 | 0.00 | 0.00 | 69 | 1005.3 |
| 20260509011536 | 44 | 0 | 0.0 | 0.0 | 0.00 | 0.00 | 0.00 | 72 | 1005.6 |
| 20260509010028 | 44 | 0 | 0.0 | 0.0 | 0.00 | 0.00 | 0.00 | 71 | 1005.9 |